A- A+ FrançaisEnglishEspañol中国

le plus proche LFBE Bergerac-RoumaniereLFBT Tarbes-Lourdes-PyrénéesLFMD Cannes-Mandelieu LFBP Pau-Pyrénées

manche à air

La météo aéronautique pour les pilotes, la préparation du vol avec les METAR (METeorological Aerodrome Report, message d'observation des conditions météorologiques pour l'aviation) et Les TAF (Terminal Aerodrome Forecast : message de prévision à court terme des conditions météorologiques pour l'aviation). Et les autres ressources comme les VAC (Visual Approch Chart) et les NOTAM (Notice To Airman) pour préprer les vols.

Aéroport Orebro (Suède) / OACI ESOE/ IATA ORB

L'altitude de l'aéroport Orebro est de 57 m=187 ft. Il est situé à proximité de Örebro (Suède). La météo générale à 5 jours est disponible pour Orebro situé à 11.1 km.

METAR de l'aéroport Orebro - ESOE

ESOE 291020Z AUTO 13004KT 9999 OVC006/// 12/11 Q0995

Décodage du METAR de l'aéroport Orebro (SE)

METAR émis par ESOE le dimanche 29 septembre 2019 à 10:20 heure TU. C'est un METAR généré automatiquement. Attention ce METAR est obsolète car il a été émis il y a 10 heure et 47 minutes.

La visibilité est de supérieure à 10 km=supérieure à 6.2 sm.

La température est de 12°C=54 °F et le point rosée est de 11°C=52 °F . Ce qui correspond à 94% d'humidité relative.

Le QNH est de 995 hPa=29.38 inHg

Vent de 4 kt=7 km/h, orienté à 130°.

Nuages : Couverture nuageuse soudée à 600 ft=180 mètres.

TAF de l'aéroport Orebro - ESOE

ESOE 271848Z 2718/2721 09010KT 9999 -RA BKN015 TEMPO 2718/2721 4000 RA BKN007

ESOE 271848Z 2718/2721 09010KT 9999 faible RA couverture nuageuse fragmentée à 015 temporairement 2718/2721 4000 pluie couverture nuageuse fragmentée à 007

Aéroport à proximité de Orebro

Météo générale à 5 jours à Orebro (11.1 km)ESKK Aéroport Karlskoga (34 km)ESQO Aéroport Arboga (53 km)ESIA Aéroport Karlsborg (85 km)ESCF Aéroport Linkoping Malmen (96 km)ESSU Aéroport Eskiltuna (96 km)ESSL Aéroport Linkoping SAAB (98 km)

Vue aérienne de l'aéroport Orebro

NOTAM de l'aéroport Orebro

Les NOTAM sont fournis sans aucune garantie de leur actualité. Le pilote est le seul responsable de la vérification de sa validité avant de l'utiliser opérationnellement pour préparer un vol ou l'utiliser lors de sa navigation.

Pas de NOTAM

Sources des données